Time;durP1;ratioP1;P1;durP2;ratioP2;P2;SDS_P1;SDS_P2;PMS_P1;PMS_P2;Temp;Humidity;BMP_temperature;BMP_pressure;BME280_temperature;BME280_humidity;BME280_pressure;Samples;Min_cycle;Max_cycle;Signal;HPM_P1;HPM_P2
2021/09/18 00:02:20;;;;;;;16.17;11.40;;;12.80;99.90;;;;;;5050266;28;20373;-52
2021/09/18 00:04:46;;;;;;;15.73;11.25;;;12.60;99.90;;;;;;5050222;28;20743;-52
2021/09/18 00:07:11;;;;;;;16.90;10.97;;;12.40;99.90;;;;;;5049218;28;20396;-52
2021/09/18 00:09:37;;;;;;;17.00;11.90;;;12.50;99.90;;;;;;5050039;28;20390;-52
2021/09/18 00:12:03;;;;;;;15.90;10.60;;;12.50;99.90;;;;;;5049261;28;20427;-52
2021/09/18 00:14:29;;;;;;;16.25;10.55;;;12.40;99.90;;;;;;5049966;28;20415;-52
2021/09/18 00:16:55;;;;;;;17.67;11.30;;;12.40;99.90;;;;;;5049364;28;20504;-52
2021/09/18 00:19:20;;;;;;;15.68;11.00;;;12.40;99.90;;;;;;5049829;28;20755;-52
2021/09/18 00:21:46;;;;;;;17.47;11.80;;;12.40;99.90;;;;;;5049177;28;20413;-52
2021/09/18 00:24:11;;;;;;;20.42;11.95;;;12.40;99.90;;;;;;5049172;28;20397;-52
2021/09/18 00:26:37;;;;;;;16.98;12.20;;;12.40;99.90;;;;;;5049854;28;20855;-52
2021/09/18 00:29:04;;;;;;;18.93;12.23;;;12.20;99.90;;;;;;5047958;28;20391;-53
2021/09/18 00:31:30;;;;;;;17.63;11.20;;;12.00;99.90;;;;;;5050074;28;20381;-53
2021/09/18 00:33:56;;;;;;;17.63;12.00;;;11.90;99.90;;;;;;5049084;28;20437;-53
2021/09/18 00:36:23;;;;;;;17.73;11.37;;;12.00;99.90;;;;;;5049814;28;20451;-53
2021/09/18 00:38:50;;;;;;;18.20;12.02;;;12.10;99.90;;;;;;5050005;28;20786;-53
2021/09/18 00:41:16;;;;;;;17.98;11.70;;;12.20;99.90;;;;;;5048877;28;20404;-53
2021/09/18 00:43:47;;;;;;;17.35;11.98;;;12.30;99.90;;;;;;5049844;28;20861;-53
2021/09/18 00:46:13;;;;;;;18.58;12.10;;;12.30;99.90;;;;;;5047779;28;20965;-53
2021/09/18 00:48:38;;;;;;;18.90;11.50;;;12.30;99.90;;;;;;5049685;28;20384;-53
2021/09/18 00:51:04;;;;;;;20.75;10.82;;;12.30;99.90;;;;;;5048404;28;20386;-53
2021/09/18 00:53:30;;;;;;;18.10;11.63;;;12.30;99.90;;;;;;5049716;28;20431;-53
2021/09/18 00:55:57;;;;;;;19.17;12.20;;;12.30;99.90;;;;;;5048523;28;20497;-53
2021/09/18 00:58:22;;;;;;;18.80;11.88;;;12.20;99.90;;;;;;5049243;28;20382;-53
2021/09/18 01:00:48;;;;;;;18.87;12.50;;;12.30;99.90;;;;;;5049620;28;20839;-53
2021/09/18 01:03:14;;;;;;;20.77;11.50;;;12.30;99.90;;;;;;5047454;28;20409;-53
2021/09/18 01:05:39;;;;;;;18.03;10.90;;;12.20;99.90;;;;;;5049571;28;20831;-53
2021/09/18 01:08:05;;;;;;;16.85;11.23;;;12.10;99.90;;;;;;5048714;28;20377;-53
2021/09/18 01:10:31;;;;;;;17.10;10.70;;;12.00;99.90;;;;;;5049350;28;20515;-53
2021/09/18 01:13:01;;;;;;;18.02;11.40;;;12.10;99.90;;;;;;5048513;28;20385;-53
2021/09/18 01:15:29;;;;;;;19.48;11.40;;;12.10;99.90;;;;;;5049262;28;20409;-53
2021/09/18 01:17:56;;;;;;;18.10;11.75;;;12.10;99.90;;;;;;5048638;28;20408;-53
2021/09/18 01:20:22;;;;;;;19.15;11.60;;;12.00;99.90;;;;;;5049356;28;20389;-53
2021/09/18 01:22:48;;;;;;;17.80;12.53;;;12.00;99.90;;;;;;5049165;28;20431;-53
2021/09/18 01:25:14;;;;;;;19.40;12.73;;;11.90;99.90;;;;;;5048396;28;20565;-53
2021/09/18 01:27:46;;;;;;;20.25;12.50;;;11.80;99.90;;;;;;5048927;28;20863;-53
2021/09/18 01:30:20;;;;;;;20.40;12.50;;;11.80;99.90;;;;;;5048203;28;20386;-53
2021/09/18 01:32:46;;;;;;;19.58;12.60;;;11.80;99.90;;;;;;5049284;28;20389;-53
2021/09/18 01:35:12;;;;;;;17.20;11.23;;;11.80;99.90;;;;;;5052332;28;20867;-53
2021/09/18 01:37:38;;;;;;;16.95;11.60;;;11.80;99.90;;;;;;5052917;28;20389;-53
2021/09/18 01:40:05;;;;;;;20.23;12.85;;;11.80;99.90;;;;;;5050772;28;20897;-53
2021/09/18 01:42:31;;;;;;;18.30;12.50;;;11.80;99.90;;;;;;5052967;28;20393;-53
2021/09/18 01:44:56;;;;;;;20.70;12.40;;;11.80;99.90;;;;;;5051187;28;20477;-54
2021/09/18 01:47:22;;;;;;;19.85;12.40;;;11.80;99.90;;;;;;5051601;28;20398;-53
2021/09/18 01:49:48;;;;;;;19.47;12.77;;;11.80;99.90;;;;;;5052694;28;20385;-53
2021/09/18 01:52:33;;;;;;;18.73;12.07;;;11.80;99.90;;;;;;5052309;28;20449;-53
2021/09/18 01:54:59;;;;;;;17.85;11.20;;;11.90;99.90;;;;;;5051865;28;20410;-53
2021/09/18 01:57:24;;;;;;;16.90;11.00;;;11.90;99.90;;;;;;5052469;28;20409;-53
2021/09/18 01:59:50;;;;;;;17.20;12.40;;;11.80;99.90;;;;;;5052714;28;20392;-53
2021/09/18 02:02:15;;;;;;;18.30;11.65;;;11.90;99.90;;;;;;5051627;28;20565;-53
2021/09/18 02:04:41;;;;;;;17.10;11.23;;;11.90;99.90;;;;;;5052471;28;20381;-53
2021/09/18 02:07:07;;;;;;;19.50;11.80;;;11.90;99.90;;;;;;5050447;28;20378;-53
2021/09/18 02:09:32;;;;;;;18.17;11.57;;;11.80;99.90;;;;;;5052724;28;20469;-53
2021/09/18 02:11:58;;;;;;;16.63;11.20;;;11.90;99.90;;;;;;5051683;28;20899;-53
2021/09/18 02:14:23;;;;;;;15.43;10.73;;;12.00;99.90;;;;;;5052106;28;20949;-53
2021/09/18 02:16:49;;;;;;;17.07;10.67;;;11.90;99.90;;;;;;5052265;28;20416;-53
2021/09/18 02:19:15;;;;;;;18.60;10.82;;;11.90;99.90;;;;;;5051135;28;21004;-53
2021/09/18 02:21:40;;;;;;;19.13;10.32;;;11.80;99.90;;;;;;5052332;28;20843;-53
2021/09/18 02:24:08;;;;;;;15.57;10.00;;;11.70;99.90;;;;;;5050219;28;20795;-53
2021/09/18 02:26:35;;;;;;;16.77;10.68;;;11.60;99.90;;;;;;5052321;28;20400;-53
2021/09/18 02:29:00;;;;;;;18.67;11.30;;;11.60;99.90;;;;;;5051368;28;20877;-53
2021/09/18 02:31:26;;;;;;;19.45;10.40;;;11.60;99.90;;;;;;5051858;28;20382;-53
2021/09/18 02:33:51;;;;;;;16.60;11.10;;;11.70;99.90;;;;;;5051580;28;20477;-53
2021/09/18 02:36:17;;;;;;;17.40;11.03;;;11.60;99.90;;;;;;5051000;28;20872;-53
2021/09/18 02:38:43;;;;;;;18.60;11.27;;;11.50;99.90;;;;;;5051900;28;20382;-53
2021/09/18 02:41:08;;;;;;;16.70;10.13;;;11.60;99.90;;;;;;5050909;28;20465;-53
2021/09/18 02:43:34;;;;;;;17.30;10.07;;;11.60;99.90;;;;;;5051108;28;20404;-53
2021/09/18 02:45:59;;;;;;;17.33;10.50;;;11.60;99.90;;;;;;5050531;28;20377;-53
2021/09/18 02:48:25;;;;;;;17.77;10.40;;;11.60;99.90;;;;;;5051633;28;20533;-53
2021/09/18 02:50:51;;;;;;;18.70;10.90;;;11.60;99.90;;;;;;5051504;28;20380;-54
2021/09/18 02:53:17;;;;;;;15.07;10.33;;;11.50;99.90;;;;;;5050843;28;20875;-54
2021/09/18 02:55:42;;;;;;;17.27;11.23;;;11.50;99.90;;;;;;5051176;28;20417;-54
2021/09/18 02:58:08;;;;;;;16.97;11.30;;;11.40;99.90;;;;;;5050561;28;20390;-54
2021/09/18 03:00:34;;;;;;;17.95;10.48;;;11.30;99.90;;;;;;5051639;28;20384;-53
2021/09/18 03:02:59;;;;;;;16.83;10.60;;;11.30;99.90;;;;;;5050400;28;20465;-54
2021/09/18 03:05:25;;;;;;;15.00;9.90;;;11.20;99.90;;;;;;5051354;28;20731;-53
2021/09/18 03:07:50;;;;;;;16.88;10.77;;;11.30;99.90;;;;;;5051279;28;20384;-53
2021/09/18 03:10:17;;;;;;;16.73;10.10;;;11.40;99.90;;;;;;5050376;28;20377;-53
2021/09/18 03:12:43;;;;;;;18.08;10.80;;;11.30;99.90;;;;;;5051288;28;20393;-53
2021/09/18 03:15:10;;;;;;;16.07;10.33;;;11.30;99.90;;;;;;5050408;28;20400;-53
2021/09/18 03:17:36;;;;;;;16.17;11.32;;;11.30;99.90;;;;;;5049963;28;20405;-53
2021/09/18 03:20:03;;;;;;;17.63;10.93;;;11.30;99.90;;;;;;5050306;28;20373;-53
2021/09/18 03:22:29;;;;;;;17.38;9.88;;;11.30;99.90;;;;;;5050695;28;20724;-53
2021/09/18 03:24:54;;;;;;;18.30;10.80;;;11.40;99.90;;;;;;5050871;28;20385;-53
2021/09/18 03:27:20;;;;;;;17.42;11.27;;;11.40;99.90;;;;;;5050467;28;20443;-53
2021/09/18 03:29:46;;;;;;;16.73;11.10;;;11.50;99.90;;;;;;5050821;28;20400;-54
2021/09/18 03:32:11;;;;;;;20.98;11.40;;;11.40;99.90;;;;;;5050084;28;20859;-53
2021/09/18 03:34:38;;;;;;;18.13;11.65;;;11.40;99.90;;;;;;5051130;28;20458;-54
2021/09/18 03:37:03;;;;;;;16.85;10.50;;;11.50;99.90;;;;;;5049934;28;20406;-52
2021/09/18 03:39:29;;;;;;;17.37;10.60;;;11.40;99.90;;;;;;5050739;28;20747;-54
2021/09/18 03:41:55;;;;;;;17.10;10.60;;;11.40;99.90;;;;;;5050957;28;20492;-54
2021/09/18 03:44:20;;;;;;;17.33;11.40;;;11.30;99.90;;;;;;5049647;28;20390;-54
2021/09/18 03:46:46;;;;;;;22.50;11.57;;;11.20;99.90;;;;;;5050508;28;20388;-55
2021/09/18 03:49:11;;;;;;;19.47;10.27;;;11.10;99.90;;;;;;5049967;28;20389;-54
2021/09/18 03:51:37;;;;;;;15.50;10.80;;;11.00;99.90;;;;;;5050516;28;20778;-54
2021/09/18 03:54:03;;;;;;;18.00;11.70;;;11.10;99.90;;;;;;5049635;28;20473;-55
2021/09/18 03:56:28;;;;;;;18.27;11.67;;;11.20;99.90;;;;;;5049679;28;20444;-54
2021/09/18 03:58:54;;;;;;;17.70;11.80;;;11.10;99.90;;;;;;5050429;28;20378;-54
2021/09/18 04:01:20;;;;;;;17.87;10.90;;;11.10;99.90;;;;;;5049424;28;20485;-54
2021/09/18 04:03:51;;;;;;;19.42;12.23;;;11.00;99.90;;;;;;5050456;28;20393;-54
2021/09/18 04:06:17;;;;;;;17.60;11.38;;;11.00;99.90;;;;;;5049348;28;20473;-54
2021/09/18 04:08:44;;;;;;;19.40;12.40;;;10.90;99.90;;;;;;5050091;28;20379;-54
2021/09/18 04:11:10;;;;;;;20.70;12.45;;;10.90;99.90;;;;;;5049266;28;20859;-55
2021/09/18 04:13:36;;;;;;;19.10;13.10;;;11.00;99.90;;;;;;5050264;28;20382;-54
2021/09/18 04:16:02;;;;;;;18.63;12.45;;;11.00;99.90;;;;;;5049011;28;20879;-55
2021/09/18 04:18:27;;;;;;;20.33;13.50;;;10.90;99.90;;;;;;5058687;28;20385;-54
2021/09/18 04:20:53;;;;;;;19.83;12.60;;;10.90;99.90;;;;;;5060530;28;20737;-55
2021/09/18 04:23:19;;;;;;;19.77;13.50;;;10.90;99.90;;;;;;5058071;28;20752;-54
2021/09/18 04:25:44;;;;;;;19.30;12.52;;;11.00;99.90;;;;;;5050170;28;20466;-54
2021/09/18 04:28:10;;;;;;;22.87;14.60;;;10.90;99.90;;;;;;5049020;28;20889;-54
2021/09/18 04:30:36;;;;;;;23.53;14.80;;;10.90;99.90;;;;;;5049980;28;20929;-54
2021/09/18 04:33:01;;;;;;;23.42;14.10;;;10.80;99.90;;;;;;5055805;28;20784;-55
2021/09/18 04:35:27;;;;;;;24.85;15.10;;;10.90;99.90;;;;;;5069513;28;20384;-54
2021/09/18 04:37:53;;;;;;;26.10;15.93;;;10.90;99.90;;;;;;5051720;28;20386;-54
2021/09/18 04:40:19;;;;;;;25.90;15.60;;;11.00;99.90;;;;;;5049077;28;20722;-54
2021/09/18 04:42:45;;;;;;;23.13;15.20;;;11.00;99.90;;;;;;5049772;28;20459;-55
2021/09/18 04:45:11;;;;;;;23.60;15.00;;;11.00;99.90;;;;;;5051356;28;20861;-55
2021/09/18 04:47:37;;;;;;;24.70;14.60;;;11.00;99.90;;;;;;5056384;28;20373;-55
2021/09/18 04:50:03;;;;;;;24.05;15.50;;;11.10;99.90;;;;;;5057758;28;20420;-55
2021/09/18 04:52:29;;;;;;;27.00;15.57;;;11.10;99.90;;;;;;5049470;28;20404;-55
2021/09/18 04:54:55;;;;;;;20.80;14.03;;;11.00;99.90;;;;;;5049270;28;20744;-55
2021/09/18 04:57:21;;;;;;;24.35;14.90;;;11.00;99.90;;;;;;5048452;28;21243;-54
2021/09/18 04:59:47;;;;;;;21.80;13.05;;;11.00;99.90;;;;;;5049130;28;20392;-55
2021/09/18 05:02:12;;;;;;;23.40;14.67;;;11.10;99.90;;;;;;5048650;28;20388;-55
2021/09/18 05:04:38;;;;;;;24.52;15.38;;;11.10;99.90;;;;;;5049219;28;20377;-54
2021/09/18 05:07:03;;;;;;;22.03;14.30;;;11.10;99.90;;;;;;5054499;28;20477;-54
2021/09/18 05:09:29;;;;;;;24.95;14.18;;;12.20;99.90;;;;;;5061342;28;20525;-54
2021/09/18 05:11:55;;;;;;;23.30;14.20;;;11.00;99.90;;;;;;5067002;28;20473;-54
2021/09/18 05:14:20;;;;;;;23.13;13.40;;;11.00;99.90;;;;;;5048232;28;20416;-54
2021/09/18 05:16:46;;;;;;;20.75;13.60;;;11.00;99.90;;;;;;5049220;28;20938;-54
2021/09/18 05:19:12;;;;;;;21.70;13.53;;;11.10;99.90;;;;;;5048937;28;20382;-54
2021/09/18 05:21:39;;;;;;;23.95;14.23;;;11.00;99.90;;;;;;5059717;28;20388;-54
2021/09/18 05:24:05;;;;;;;26.13;14.75;;;10.90;99.90;;;;;;5056035;28;20465;-54
2021/09/18 05:26:30;;;;;;;23.63;14.63;;;11.00;99.90;;;;;;5068981;28;20391;-54
2021/09/18 05:28:56;;;;;;;26.45;14.25;;;11.00;99.90;;;;;;5069057;28;20372;-56
2021/09/18 05:31:22;;;;;;;22.40;13.73;;;11.00;99.90;;;;;;5060884;28;20895;-54
2021/09/18 05:33:47;;;;;;;21.02;14.20;;;11.10;99.90;;;;;;5057909;28;20381;-54
2021/09/18 05:36:13;;;;;;;22.80;13.87;;;11.10;99.90;;;;;;5059791;28;20451;-54
2021/09/18 05:38:39;;;;;;;18.92;13.57;;;11.20;99.90;;;;;;5068736;28;20383;-54
2021/09/18 05:41:04;;;;;;;20.77;13.23;;;11.20;99.90;;;;;;5068168;28;20463;-55
2021/09/18 05:43:30;;;;;;;20.30;13.63;;;11.20;99.90;;;;;;5068047;28;20406;-54
2021/09/18 05:45:56;;;;;;;20.20;12.75;;;11.30;99.90;;;;;;5066022;28;20920;-54
2021/09/18 05:48:21;;;;;;;17.63;12.00;;;11.20;99.90;;;;;;5060494;28;20972;-55
2021/09/18 05:50:47;;;;;;;18.88;11.93;;;11.30;99.90;;;;;;5058585;28;20391;-54
2021/09/18 05:53:14;;;;;;;18.20;12.40;;;11.40;99.90;;;;;;5062292;28;20437;-55
2021/09/18 05:55:39;;;;;;;17.15;11.27;;;11.50;99.90;;;;;;5067282;28;20424;-55
2021/09/18 05:58:05;;;;;;;19.00;11.30;;;11.50;99.90;;;;;;5067556;28;20794;-55
2021/09/18 06:00:31;;;;;;;20.13;11.80;;;11.70;99.90;;;;;;5055980;28;20382;-55
2021/09/18 06:02:56;;;;;;;15.63;10.45;;;11.70;99.90;;;;;;5054059;28;20398;-52
2021/09/18 06:05:22;;;;;;;14.70;10.20;;;12.10;99.90;;;;;;5052646;28;20380;-52
2021/09/18 06:07:48;;;;;;;14.98;9.23;;;12.90;99.90;;;;;;5050811;28;20409;-55
2021/09/18 06:10:14;;;;;;;15.87;9.00;;;14.00;99.90;;;;;;5046732;28;20402;-55
2021/09/18 06:12:39;;;;;;;11.82;7.68;;;15.10;99.90;;;;;;5055586;28;20392;-53
2021/09/18 06:15:06;;;;;;;11.35;7.97;;;16.30;99.90;;;;;;5049973;28;20377;-53
2021/09/18 06:17:31;;;;;;;11.07;7.72;;;17.60;99.90;;;;;;5051166;28;20483;-53
2021/09/18 06:19:57;;;;;;;11.20;7.28;;;19.40;99.90;;;;;;5052948;28;20490;-56
2021/09/18 06:22:23;;;;;;;10.90;7.60;;;20.10;99.90;;;;;;5059461;28;20494;-55
2021/09/18 06:24:48;;;;;;;13.33;9.07;;;21.20;99.90;;;;;;5055756;28;20914;-55
2021/09/18 06:27:14;;;;;;;15.10;8.43;;;21.70;99.90;;;;;;5055276;28;20389;-55
2021/09/18 06:29:40;;;;;;;12.55;8.32;;;21.90;99.90;;;;;;5054111;28;20511;-53
2021/09/18 06:32:07;;;;;;;12.45;8.75;;;22.40;99.90;;;;;;5052271;28;20382;-55
2021/09/18 06:34:34;;;;;;;11.10;9.02;;;22.30;99.90;;;;;;5052888;28;20393;-53
2021/09/18 06:37:01;;;;;;;11.60;9.52;;;23.10;99.90;;;;;;5060243;28;20428;-53
2021/09/18 06:39:26;;;;;;;13.23;11.65;;;23.30;99.90;;;;;;5050477;28;20382;-53
2021/09/18 06:41:52;;;;;;;12.88;8.35;;;23.10;99.90;;;;;;5057086;28;20393;-54
2021/09/18 06:44:18;;;;;;;12.50;8.93;;;23.10;99.90;;;;;;5055916;28;20411;-53
2021/09/18 06:46:43;;;;;;;12.63;8.30;;;23.30;99.90;;;;;;5057737;28;20391;-53
2021/09/18 06:49:09;;;;;;;11.48;8.80;;;22.70;99.90;;;;;;5054443;28;20863;-55
2021/09/18 06:51:34;;;;;;;17.60;9.80;;;22.50;99.90;;;;;;5059071;28;20412;-54
2021/09/18 06:54:00;;;;;;;12.55;9.00;;;23.20;99.90;;;;;;5052002;28;20442;-54
2021/09/18 06:56:26;;;;;;;16.35;14.70;;;23.90;99.90;;;;;;5058799;28;20413;-54
2021/09/18 06:58:55;;;;;;;12.70;11.30;;;24.10;98.80;;;;;;5061885;28;20455;-54
2021/09/18 07:01:22;;;;;;;13.50;11.25;;;24.20;99.40;;;;;;5050206;28;20394;-54
2021/09/18 07:03:48;;;;;;;15.80;11.80;;;23.80;99.40;;;;;;5056911;28;20389;-54
2021/09/18 07:06:13;;;;;;;13.40;11.23;;;24.10;99.60;;;;;;5057447;28;20380;-54
2021/09/18 07:08:39;;;;;;;14.98;11.05;;;24.10;98.90;;;;;;5056498;28;20409;-54
2021/09/18 07:11:04;;;;;;;13.80;11.75;;;24.30;99.40;;;;;;5059094;28;20954;-55
2021/09/18 07:13:30;;;;;;;15.30;11.20;;;24.60;98.20;;;;;;5055476;28;20745;-56
2021/09/18 07:15:56;;;;;;;14.00;10.00;;;25.20;97.60;;;;;;5057171;28;20921;-55
2021/09/18 07:18:22;;;;;;;13.07;9.13;;;25.10;96.60;;;;;;5065699;28;20414;-55
2021/09/18 07:20:48;;;;;;;12.57;9.80;;;24.50;97.20;;;;;;5079494;28;20418;-54
2021/09/18 07:23:13;;;;;;;14.13;10.00;;;23.80;98.30;;;;;;5086793;28;20373;-54
2021/09/18 07:25:40;;;;;;;15.27;9.90;;;23.60;99.40;;;;;;5075794;28;20398;-55
2021/09/18 07:28:05;;;;;;;12.27;9.20;;;24.70;97.10;;;;;;5080375;28;20388;-55
2021/09/18 07:30:32;;;;;;;14.03;9.60;;;25.20;96.40;;;;;;5075636;28;20721;-55
2021/09/18 07:32:58;;;;;;;15.57;9.57;;;25.30;96.30;;;;;;5070724;28;20470;-56
2021/09/18 07:35:23;;;;;;;15.20;9.77;;;26.40;94.30;;;;;;5070748;28;21315;-56
2021/09/18 07:37:49;;;;;;;13.50;9.77;;;27.30;92.00;;;;;;5074387;28;20378;-56
2021/09/18 07:40:15;;;;;;;14.02;11.15;;;27.50;90.90;;;;;;5075250;28;20384;-56
2021/09/18 07:42:41;;;;;;;17.50;12.60;;;27.70;90.80;;;;;;5069634;28;20484;-56
2021/09/18 07:45:08;;;;;;;16.30;14.70;;;27.30;90.30;;;;;;5076477;28;20474;-56
2021/09/18 07:47:33;;;;;;;14.95;12.90;;;27.80;86.50;;;;;;5078799;28;20870;-57
2021/09/18 07:49:59;;;;;;;14.70;10.93;;;27.30;88.20;;;;;;5078309;28;20462;-56
2021/09/18 07:52:25;;;;;;;13.20;10.70;;;26.80;90.40;;;;;;5083670;28;20431;-56
2021/09/18 07:54:50;;;;;;;16.40;14.80;;;26.70;90.70;;;;;;5075196;28;20493;-57
2021/09/18 07:57:16;;;;;;;17.37;13.53;;;27.40;89.10;;;;;;5077586;28;20416;-56
2021/09/18 07:59:42;;;;;;;15.17;13.57;;;27.20;88.40;;;;;;5069017;28;20482;-56
2021/09/18 08:02:07;;;;;;;14.55;12.77;;;27.20;89.90;;;;;;5067406;28;20439;-57
2021/09/18 08:04:34;;;;;;;17.25;15.75;;;26.90;88.20;;;;;;5069716;28;20450;-57
2021/09/18 08:07:00;;;;;;;21.83;20.13;;;27.40;88.00;;;;;;5072313;28;20872;-56
2021/09/18 08:09:25;;;;;;;16.88;15.18;;;28.80;84.30;;;;;;5069183;28;20441;-56
2021/09/18 08:11:51;;;;;;;13.95;9.70;;;29.40;80.50;;;;;;5051944;28;20387;-55
2021/09/18 08:14:17;;;;;;;14.55;13.05;;;29.90;79.70;;;;;;5068919;28;20379;-56
2021/09/18 08:16:43;;;;;;;14.93;11.10;;;30.70;75.70;;;;;;5067761;28;20943;-56
2021/09/18 08:19:09;;;;;;;12.63;9.27;;;29.80;75.20;;;;;;5068911;28;20406;-56
2021/09/18 08:21:34;;;;;;;13.80;9.38;;;29.90;75.80;;;;;;5069510;28;20403;-61
2021/09/18 08:24:00;;;;;;;14.88;10.20;;;30.10;73.30;;;;;;5056938;28;20783;-56
2021/09/18 08:26:32;;;;;;;13.20;9.48;;;29.60;74.20;;;;;;5059281;28;20383;-56
2021/09/18 08:28:59;;;;;;;14.07;10.75;;;29.60;75.50;;;;;;5070352;28;20725;-56
2021/09/18 08:31:26;;;;;;;13.80;12.00;;;30.50;71.60;;;;;;5050748;28;20401;-56
2021/09/18 08:33:52;;;;;;;12.88;10.48;;;31.40;69.80;;;;;;5049469;28;20382;-56
2021/09/18 08:36:18;;;;;;;11.73;9.77;;;30.70;69.50;;;;;;5048880;28;20467;-54
2021/09/18 08:38:44;;;;;;;12.60;10.70;;;31.00;68.50;;;;;;5049536;28;20373;-54
2021/09/18 08:41:10;;;;;;;12.60;10.23;;;31.10;67.60;;;;;;5049167;28;20385;-56
2021/09/18 08:43:36;;;;;;;13.27;10.20;;;32.00;65.30;;;;;;5059532;28;20783;-56
2021/09/18 08:46:02;;;;;;;13.95;11.20;;;32.20;62.80;;;;;;5069297;28;20388;-57
2021/09/18 08:48:28;;;;;;;14.05;11.18;;;32.80;61.20;;;;;;5068762;28;20364;-57
2021/09/18 08:50:54;;;;;;;12.75;9.57;;;32.50;62.60;;;;;;5069496;28;20376;-56
2021/09/18 08:53:20;;;;;;;12.50;9.55;;;31.90;63.00;;;;;;5068848;28;20845;-55
2021/09/18 08:55:57;;;;;;;12.73;9.60;;;31.70;63.10;;;;;;5068937;28;20495;-55
2021/09/18 08:58:24;;;;;;;11.93;9.30;;;31.80;61.10;;;;;;5068945;28;20382;-55
2021/09/18 09:00:55;;;;;;;12.77;9.32;;;30.80;63.50;;;;;;5068935;28;20736;-55
2021/09/18 09:03:30;;;;;;;13.95;9.32;;;31.30;62.60;;;;;;5068634;28;20390;-56
2021/09/18 09:06:16;;;;;;;12.70;9.70;;;31.90;61.70;;;;;;5059550;28;20802;-55
2021/09/18 09:08:55;;;;;;;12.45;9.55;;;32.00;60.70;;;;;;5068230;28;20380;-56
2021/09/18 09:11:27;;;;;;;14.85;9.00;;;32.40;59.50;;;;;;5066725;28;20454;-55
2021/09/18 09:13:58;;;;;;;13.98;9.50;;;31.50;60.50;;;;;;5089992;28;22352;-55
2021/09/18 09:16:24;;;;;;;13.18;9.55;;;32.50;58.60;;;;;;5063318;28;20403;-56
2021/09/18 09:18:50;;;;;;;12.02;9.80;;;33.20;56.90;;;;;;5059941;28;20394;-56
2021/09/18 09:21:24;;;;;;;12.10;9.20;;;33.10;57.30;;;;;;5062458;28;20376;-55
2021/09/18 09:24:07;;;;;;;11.90;9.07;;;32.30;57.60;;;;;;5066033;28;20391;-56
2021/09/18 09:26:35;;;;;;;12.15;9.68;;;32.80;55.80;;;;;;5059470;28;20400;-56
2021/09/18 09:29:00;;;;;;;12.43;9.23;;;33.90;54.20;;;;;;5057328;28;20834;-56
2021/09/18 09:31:28;;;;;;;11.73;8.67;;;33.90;54.40;;;;;;5065886;28;20429;-56
2021/09/18 09:34:14;;;;;;;12.20;9.20;;;34.20;53.50;;;;;;5057500;28;20447;-56
2021/09/18 09:36:48;;;;;;;12.60;9.80;;;33.90;53.40;;;;;;5070863;28;20443;-56
2021/09/18 09:39:17;;;;;;;11.50;8.70;;;34.20;52.60;;;;;;5058160;28;20466;-56
2021/09/18 09:41:48;;;;;;;11.88;7.80;;;34.20;53.90;;;;;;5049438;28;20409;-56
2021/09/18 09:44:25;;;;;;;12.75;9.40;;;33.60;54.10;;;;;;5061159;28;20407;-56
2021/09/18 09:47:04;;;;;;;11.48;8.35;;;33.80;52.40;;;;;;5063182;28;20757;-56
2021/09/18 09:49:53;;;;;;;11.82;9.80;;;34.50;51.60;;;;;;5059897;28;20396;-56
2021/09/18 09:52:27;;;;;;;10.50;8.50;;;34.50;50.40;;;;;;5054517;28;20380;-57
2021/09/18 09:55:07;;;;;;;10.88;8.93;;;33.90;52.10;;;;;;5062207;28;20404;-55
2021/09/18 09:57:33;;;;;;;9.50;7.93;;;33.60;51.40;;;;;;5068887;28;20553;-55
2021/09/18 10:00:06;;;;;;;10.55;9.55;;;33.30;52.60;;;;;;5063052;28;20828;-54
2021/09/18 10:02:32;;;;;;;7.38;4.47;;;32.60;50.20;;;;;;5051616;28;20906;-53
2021/09/18 10:04:58;;;;;;;9.15;4.50;;;32.60;50.90;;;;;;5066194;28;20393;-54
2021/09/18 10:07:24;;;;;;;11.70;8.65;;;32.50;50.70;;;;;;5063321;28;20396;-54
2021/09/18 10:09:50;;;;;;;8.00;7.20;;;31.80;51.10;;;;;;5064201;28;20394;-55
2021/09/18 10:12:16;;;;;;;6.60;4.40;;;32.30;51.00;;;;;;5066783;28;20745;-54
2021/09/18 10:14:53;;;;;;;6.53;3.40;;;32.80;48.90;;;;;;5063867;28;20392;-55
2021/09/18 10:17:19;;;;;;;6.55;3.28;;;33.10;47.50;;;;;;5065190;28;20873;-57
2021/09/18 10:25:04;;;;;;;7.13;3.53;;;33.70;45.30;;;;;;5063917;28;20404;-57
2021/09/18 10:27:29;;;;;;;5.57;2.80;;;33.30;46.50;;;;;;5070340;28;20392;-54
2021/09/18 10:29:55;;;;;;;6.03;2.60;;;32.50;45.70;;;;;;5071900;28;20475;-53
2021/09/18 10:32:23;;;;;;;5.70;2.70;;;32.90;46.80;;;;;;5063164;28;20849;-56
2021/09/18 10:35:10;;;;;;;5.73;2.93;;;32.50;46.20;;;;;;5062830;28;20395;-54
2021/09/18 10:37:38;;;;;;;5.80;2.90;;;31.90;46.10;;;;;;5059872;28;20499;-54
2021/09/18 10:40:10;;;;;;;7.20;4.20;;;32.40;46.60;;;;;;5060904;28;20376;-59
2021/09/18 10:42:39;;;;;;;6.45;4.30;;;32.20;46.50;;;;;;5067627;28;20490;-53
2021/09/18 10:45:07;;;;;;;7.00;4.00;;;32.00;46.70;;;;;;5061925;28;20420;-59
2021/09/18 10:47:48;;;;;;;6.72;4.15;;;32.20;48.80;;;;;;5058482;28;20381;-55
2021/09/18 10:50:26;;;;;;;7.85;3.90;;;32.30;47.00;;;;;;5062266;28;20503;-53
2021/09/18 10:53:03;;;;;;;7.32;4.15;;;32.00;48.00;;;;;;5066964;28;20870;-53
2021/09/18 10:55:30;;;;;;;8.50;4.00;;;31.40;49.60;;;;;;5066608;28;20529;-55
2021/09/18 10:57:55;;;;;;;7.45;3.80;;;31.80;48.40;;;;;;5062619;28;20483;-54
2021/09/18 11:00:24;;;;;;;6.83;3.97;;;31.70;48.60;;;;;;5062861;28;20752;-55
2021/09/18 11:02:59;;;;;;;7.10;4.00;;;31.80;48.50;;;;;;5062428;28;20407;-54
2021/09/18 11:05:31;;;;;;;6.10;3.58;;;31.80;49.00;;;;;;5064354;28;20399;-53
2021/09/18 11:07:58;;;;;;;7.07;3.20;;;31.60;47.10;;;;;;5061002;28;20396;-53
2021/09/18 11:10:24;;;;;;;5.80;2.70;;;31.90;45.50;;;;;;5059832;28;20831;-53
2021/09/18 11:13:08;;;;;;;5.90;2.70;;;32.50;45.30;;;;;;5061065;28;20911;-55
2021/09/18 11:15:42;;;;;;;5.97;3.20;;;31.80;47.20;;;;;;5062820;28;20745;-53
2021/09/18 11:18:10;;;;;;;6.40;4.57;;;30.60;48.70;;;;;;5050305;28;20843;-53
2021/09/18 11:20:36;;;;;;;9.10;4.80;;;30.30;49.20;;;;;;5050889;28;20374;-53
2021/09/18 11:23:03;;;;;;;6.00;4.10;;;29.90;50.70;;;;;;5050455;28;20403;-55
2021/09/18 11:25:30;;;;;;;5.68;2.95;;;28.80;50.60;;;;;;5051101;28;20374;-53
2021/09/18 11:28:10;;;;;;;7.07;3.28;;;27.80;53.00;;;;;;5051136;28;20488;-54
2021/09/18 11:30:53;;;;;;;6.07;2.92;;;27.10;54.40;;;;;;5051073;28;20378;-54
2021/09/18 11:33:22;;;;;;;5.60;2.92;;;26.60;56.20;;;;;;5050291;28;20386;-54
2021/09/18 11:36:05;;;;;;;6.20;2.80;;;26.60;54.90;;;;;;5080877;28;20474;-53
2021/09/18 11:38:33;;;;;;;7.93;5.00;;;26.60;53.80;;;;;;5050140;28;20444;-54
2021/09/18 11:41:07;;;;;;;5.78;2.70;;;26.70;54.50;;;;;;5062907;28;20408;-54
2021/09/18 11:43:34;;;;;;;5.68;2.70;;;26.50;54.80;;;;;;5078930;28;20491;-53
2021/09/18 11:46:00;;;;;;;5.88;2.70;;;26.40;54.20;;;;;;5075278;28;20464;-52
2021/09/18 11:48:29;;;;;;;5.43;2.80;;;26.10;55.00;;;;;;5055913;28;21005;-52
2021/09/18 11:50:55;;;;;;;6.10;2.90;;;26.10;55.50;;;;;;5053391;28;20539;-55
2021/09/18 11:53:21;;;;;;;5.93;3.08;;;25.90;53.90;;;;;;5047264;28;20409;-53
2021/09/18 11:55:53;;;;;;;7.05;5.85;;;25.20;54.10;;;;;;5050422;28;20584;-53
2021/09/18 11:58:21;;;;;;;7.60;6.90;;;26.00;56.40;;;;;;5050126;28;20401;-54
2021/09/18 12:00:59;;;;;;;8.90;7.70;;;26.10;56.50;;;;;;5050077;28;20866;-53
2021/09/18 12:03:31;;;;;;;10.02;9.13;;;26.00;57.50;;;;;;5047349;28;21028;-54
2021/09/18 12:06:00;;;;;;;10.23;9.32;;;25.70;58.30;;;;;;5047207;28;20404;-52
2021/09/18 12:08:31;;;;;;;8.93;8.02;;;25.40;58.80;;;;;;5050085;28;20492;-53
2021/09/18 12:11:17;;;;;;;9.40;8.40;;;25.20;59.80;;;;;;5090603;28;20406;-53
2021/09/18 12:13:45;;;;;;;7.97;5.90;;;25.20;59.70;;;;;;5059398;28;20428;-53
2021/09/18 12:16:12;;;;;;;7.27;4.50;;;25.20;59.90;;;;;;5065479;28;20984;-54
2021/09/18 12:18:41;;;;;;;6.90;4.60;;;25.40;60.80;;;;;;5060392;28;20433;-53
2021/09/18 12:21:19;;;;;;;9.02;4.60;;;25.00;61.60;;;;;;5062667;28;20403;-53
2021/09/18 12:23:58;;;;;;;9.80;4.43;;;25.30;60.80;;;;;;5067395;28;20447;-54
2021/09/18 12:26:27;;;;;;;11.60;6.10;;;25.30;61.00;;;;;;5058213;28;20477;-53
2021/09/18 12:29:14;;;;;;;8.10;4.60;;;25.40;60.00;;;;;;5048229;28;20401;-53
2021/09/18 12:31:43;;;;;;;8.27;4.60;;;25.30;60.40;;;;;;5054042;28;20462;-53
2021/09/18 12:34:13;;;;;;;7.30;4.50;;;25.40;61.40;;;;;;5051257;28;20469;-53
2021/09/18 12:36:39;;;;;;;8.15;5.07;;;25.10;61.90;;;;;;5055806;28;20514;-53
2021/09/18 12:39:06;;;;;;;8.32;4.75;;;25.10;61.70;;;;;;5080442;28;20401;-59
2021/09/18 12:41:35;;;;;;;9.57;8.32;;;25.30;62.90;;;;;;5049127;28;20388;-53